Portada
METAR-TAF:

METAR-TAF

Aeroports :

Vavaʻu, Tonga

latitud: 18-35-07S, longitud: 173-57-42W, altitud: 72 m

Observació

L'informe es va fer fa 34 minuts, a les 16:00 UTC
Vent 4 kt del Est
Temperatura 25°C
Humitat 74%
Pressió 1016 hPa
Visibilitat 10 km o més
Escasses núvols a una alçada de 1700 ft

METAR: NFTV 171600Z 10004KT 9999 FEW017 25/20 Q1016

Hora: 05:34 (16:34 UTC)

Pronòstic

L'informe es va fer fa 5 hores i 28 minuts, a les 11:06 UTC
Pronòstic vàlid del 17 a les 12 UTC al 18 a les 12 UTC
Vent 8 kt del Est
Visibilitat 10 km o més
Escasses núvols a una alçada de 1800 ft

TAF: NFTV 171106Z 1712/1812 09008KT 9999 FEW018

Observacions i pronòstics meteorològics de més de 4000 aeroports (METAR i TAF).

Les estacions disponibles són els punts grocs i vermells al mapa.

Posi el ratolí al punt desitjat per veure el nom de l'estació.

Feu clic per veure les observacions i els pronòstics meteorològics.

Per canviar el mapa: feu clic els botons verds amb una creu de color negre per apropar; al botó verd amb un guió per allunyar la imatge; o en les fletxes verdes per a mapes adjacents.


METAR-TAF: